Météo Nord-Pas-de-Calais   La météo au plus près de chez vous

Station météorologique

Observations météo à Toulouse-Blagnac (31069)

31069001 151 m Dernier relevé à 18:54
36.8°C
Humidité 18 % Vent 17.6 km/h 1017.4 hPa

Journée consultée

Vendredi 4 Septembre 2026

Synthèse de la journée

Périodes de référence en UTC

Température maximale

37.5°C

à 16:48

06h 06h

Température minimale

15.9°C

à 06:36

18h 18h

Rafale maximale

36 km/h

à 15:48

00h 00h

Précipitations

0 mm

Cumul quotidien

06h 06h

Ensoleillement

11h 11 mins

Durée quotidienne

00h 00h

Graphiques de la journée

Heure locale Réduire

Données détaillées

Relevés météo

Pas de 6 minutes Afficher les relevés infra-horaires
Relevés météo détaillés à Toulouse-Blagnac pour le Vendredi 4 Septembre 2026
Heure Température °C Point de rosée °C Humidité % Vent moyen (raf.), km/h Précipitations mm Température à 10 cm °C Température à 20 cm °C Température à 50 cm °C Température à 100 cm °C Visibilité m État du sol   Hauteur neige cm Ensoleillement min Rayonnement global W/m² Pression hPa
18:54 36.8 °C 8.6 °C 18 % 14 km/h (23 km/h) 0 mm0 mm 28.1 °C 26.2 °C 24.4 °C 23.2 °C 60000 m 0   0 cm 6 min 81.3 W/m² 1017.1 hPa
18:48 36.8 °C 9.4 °C 19 % 14 km/h (21 km/h) 0 mm0 mm 28.1 °C 26.2 °C 24.4 °C 23.2 °C 60000 m 0   0 cm 6 min 88.2 W/m² 1017.1 hPa
18:42 36.8 °C 9.4 °C 19 % 11 km/h (18 km/h) 0 mm0 mm 28.1 °C 26.1 °C 24.4 °C 23.2 °C 60000 m 0   0 cm 6 min 95.5 W/m² 1017.1 hPa
18:36 36.9 °C 8.7 °C 18 % 15 km/h (28 km/h) 0 mm0 mm 28.1 °C 26.1 °C 24.4 °C 23.2 °C 60000 m 0   0 cm 6 min 103 W/m² 1017.1 hPa
18:30 37.2 °C 8.9 °C 18 % 15 km/h (28 km/h) 0 mm0 mm 28.1 °C 26.1 °C 24.4 °C 23.2 °C 60000 m 0   0 cm 6 min 110 W/m² 1017.1 hPa
18:24 37.2 °C 8.9 °C 18 % 13 km/h (23 km/h) 0 mm0 mm 28 °C 26 °C 24.4 °C 23.2 °C 60000 m 0   0 cm 6 min 116.9 W/m² 1017.3 hPa
18:18 37 °C 8.8 °C 18 % 18 km/h (29 km/h) 0 mm0 mm 28 °C 26 °C 24.4 °C 23.2 °C 60000 m 0   0 cm 6 min 122.9 W/m² 1017.3 hPa
18:12 37.3 °C 9 °C 18 % 21 km/h (29 km/h) 0 mm0 mm 28 °C 26 °C 24.4 °C 23.2 °C 60000 m 0   0 cm 6 min 130.1 W/m² 1017.2 hPa
18:06 37.2 °C 8.9 °C 18 % 17 km/h (28 km/h) 0 mm0 mm 27.9 °C 25.9 °C 24.4 °C 23.2 °C 60000 m 0   0 cm 6 min 136.8 W/m² 1017.3 hPa
18:00 37.1 °C 8.8 °C 18 % 16 km/h (26 km/h) 0 mm0 mm 27.9 °C 25.9 °C 24.4 °C 23.2 °C 60000 m 0   0 cm 6 min 143 W/m² 1017.3 hPa
17:54 37.2 °C 8.9 °C 18 % 18 km/h (29 km/h) 0 mm0 mm 27.9 °C 25.9 °C 24.4 °C 23.2 °C 60000 m 0   0 cm 6 min 149.6 W/m² 1017.4 hPa
17:48 37 °C 8.8 °C 18 % 18 km/h (29 km/h) 0 mm0 mm 27.9 °C 25.8 °C 24.4 °C 23.2 °C 60000 m 0   0 cm 6 min 156.7 W/m² 1017.4 hPa
17:42 37.2 °C 9.7 °C 19 % 15 km/h (29 km/h) 0 mm0 mm 27.8 °C 25.8 °C 24.4 °C 23.2 °C 60000 m 0   0 cm 6 min 162.9 W/m² 1017.3 hPa
17:36 37.3 °C 9.8 °C 19 % 18 km/h (27 km/h) 0 mm0 mm 27.8 °C 25.8 °C 24.4 °C 23.2 °C 60000 m 0   0 cm 6 min 169 W/m² 1017.4 hPa
17:30 37.3 °C 9 °C 18 % 17 km/h (28 km/h) 0 mm0 mm 27.7 °C 25.7 °C 24.4 °C 23.2 °C 58860 m 0   0 cm 6 min 174.8 W/m² 1017.4 hPa
17:24 37.2 °C 9.7 °C 19 % 17 km/h (27 km/h) 0 mm0 mm 27.7 °C 25.7 °C 24.4 °C 23.2 °C 53070 m 0   0 cm 6 min 180.9 W/m² 1017.5 hPa
17:18 37.1 °C 9.6 °C 19 % 19 km/h (27 km/h) 0 mm0 mm 27.6 °C 25.6 °C 24.4 °C 23.2 °C 54000 m 0   0 cm 6 min 186.3 W/m² 1017.5 hPa
17:12 37.3 °C 9.8 °C 19 % 17 km/h (26 km/h) 0 mm0 mm 27.6 °C 25.6 °C 24.4 °C 23.2 °C 60000 m 0   0 cm 6 min 192.4 W/m² 1017.5 hPa
17:06 37.1 °C 10.4 °C 20 % 13 km/h (23 km/h) 0 mm0 mm 27.6 °C 25.6 °C 24.4 °C 23.2 °C 60000 m 0   0 cm 6 min 197.1 W/m² 1017.6 hPa
17:00 36.8 °C 9.4 °C 19 % 17 km/h (29 km/h) 0 mm0 mm 27.5 °C 25.6 °C 24.4 °C 23.2 °C 60000 m 0   0 cm 6 min 199.9 W/m² 1017.7 hPa
16:54 37 °C 9.6 °C 19 % 20 km/h (32 km/h) 0 mm0 mm 27.5 °C 25.5 °C 24.4 °C 23.2 °C 60000 m 0   0 cm 6 min 206.3 W/m² 1017.7 hPa
16:48 37.5 °C 10 °C 19 % 16 km/h (26 km/h) 0 mm0 mm 27.4 °C 25.5 °C 24.5 °C 23.2 °C 60000 m 0   0 cm 6 min 216.6 W/m² 1017.6 hPa
16:42 36.9 °C 9.5 °C 19 % 21 km/h (33 km/h) 0 mm0 mm 27.3 °C 25.5 °C 24.5 °C 23.2 °C 60000 m 0   0 cm 6 min 222.3 W/m² 1017.8 hPa
16:36 36.9 °C 9.5 °C 19 % 25 km/h (33 km/h) 0 mm0 mm 27.2 °C 25.4 °C 24.5 °C 23.2 °C 60000 m 0   0 cm 6 min 225.3 W/m² 1017.8 hPa
16:30 37.2 °C 9.7 °C 19 % 18 km/h (30 km/h) 0 mm0 mm 27.2 °C 25.3 °C 24.4 °C 23.2 °C 60000 m 0   0 cm 6 min 230.5 W/m² 1017.8 hPa
16:24 36.9 °C 9.5 °C 19 % 19 km/h (30 km/h) 0 mm0 mm 27.1 °C 25.3 °C 24.5 °C 23.2 °C 18100 m 0   0 cm 6 min 234.5 W/m² 1017.9 hPa
16:18 37.3 °C 9.8 °C 19 % 18 km/h (30 km/h) 0 mm0 mm 27.1 °C 25.3 °C 24.5 °C 23.2 °C 18100 m 0   0 cm 6 min 240.5 W/m² 1017.9 hPa
16:12 36.7 °C 9.3 °C 19 % 15 km/h (30 km/h) 0 mm0 mm 27 °C 25.2 °C 24.4 °C 23.2 °C 60000 m 0   0 cm 6 min 245.1 W/m² 1017.9 hPa
16:06 37 °C 9.6 °C 19 % 19 km/h (30 km/h) 0 mm0 mm 26.9 °C 25.2 °C 24.5 °C 23.2 °C 19740 m 0   0 cm 6 min 249.2 W/m² 1018 hPa
16:00 36.8 °C 9.4 °C 19 % 20 km/h (30 km/h) 0 mm0 mm 26.8 °C 25.2 °C 24.5 °C 23.2 °C 59200 m 0   0 cm 6 min 253.1 W/m² 1018.1 hPa
15:54 37.1 °C 9.6 °C 19 % 16 km/h (29 km/h) 0 mm0 mm 26.8 °C 25.1 °C 24.5 °C 23.2 °C 59200 m 0   0 cm 6 min 257.5 W/m² 1017.8 hPa
15:48 36.8 °C 9.4 °C 19 % 18 km/h (36 km/h) 0 mm0 mm 26.7 °C 25.1 °C 24.5 °C 23.2 °C 13820 m 0   0 cm 6 min 261.9 W/m² 1018.1 hPa
15:42 36.7 °C 9.3 °C 19 % 13 km/h (28 km/h) 0 mm0 mm 26.6 °C 25 °C 24.5 °C 23.2 °C 12050 m 0   0 cm 6 min 265.7 W/m² 1018.2 hPa
15:36 36.3 °C 9 °C 19 % 11 km/h (21 km/h) 0 mm0 mm 26.6 °C 25 °C 24.5 °C 23.2 °C 54500 m 0   0 cm 6 min 269.2 W/m² 1018.2 hPa
15:30 36.2 °C 9.7 °C 20 % 9 km/h (16 km/h) 0 mm0 mm 26.5 °C 25 °C 24.5 °C 23.2 °C 54500 m 0   0 cm 6 min 272.5 W/m² 1018.3 hPa
15:24 36.2 °C 10.4 °C 21 % 8 km/h (17 km/h) 0 mm0 mm 26.4 °C 24.9 °C 24.5 °C 23.2 °C 60000 m 0   0 cm 6 min 272 W/m² 1018.3 hPa
15:18 36 °C 10.9 °C 22 % 4 km/h (13 km/h) 0 mm0 mm 26.3 °C 24.9 °C 24.5 °C 23.2 °C 60000 m 0   0 cm 6 min 274.5 W/m² 1018.3 hPa
15:12 35.7 °C 10.7 °C 22 % 8 km/h (17 km/h) 0 mm0 mm 26.2 °C 24.9 °C 24.5 °C 23.2 °C 60000 m 0   0 cm 6 min 278.1 W/m² 1018.4 hPa
15:06 35.5 °C 10.5 °C 22 % 10 km/h (17 km/h) 0 mm0 mm 26.1 °C 24.8 °C 24.5 °C 23.2 °C 60000 m 0   0 cm 6 min 282.1 W/m² 1018.5 hPa
15:00 35.6 °C 9.9 °C 21 % 11 km/h (21 km/h) 0 mm0 mm 26 °C 24.8 °C 24.5 °C 23.2 °C 17960 m 0   0 cm 6 min 286 W/m² 1018.5 hPa
14:54 35.4 °C 10.4 °C 22 % 10 km/h (19 km/h) 0 mm0 mm 26 °C 24.8 °C 24.5 °C 23.2 °C 60000 m 0   0 cm 6 min 288 W/m² 1018.5 hPa
14:48 35.2 °C 10.3 °C 22 % 10 km/h (17 km/h) 0 mm0 mm 25.9 °C 24.7 °C 24.5 °C 23.2 °C 18050 m 0   0 cm 6 min 289.4 W/m² 1018.6 hPa
14:42 35 °C 10.1 °C 22 % 6 km/h (13 km/h) 0 mm0 mm 25.8 °C 24.8 °C 24.6 °C 23.3 °C 60000 m 0   0 cm 6 min 290.2 W/m² 1018.6 hPa
14:36 34.6 °C 10.4 °C 23 % 5 km/h (13 km/h) 0 mm0 mm 25.7 °C 24.7 °C 24.5 °C 23.2 °C 60000 m 0   0 cm 6 min 291.4 W/m² 1018.7 hPa
14:30 34.5 °C 10.4 °C 23 % 6 km/h (12 km/h) 0 mm0 mm 25.6 °C 24.7 °C 24.5 °C 23.2 °C 60000 m 0   0 cm 6 min 293.4 W/m² 1018.7 hPa
14:24 34.9 °C 10 °C 22 % 5 km/h (12 km/h) 0 mm0 mm 25.6 °C 24.6 °C 24.5 °C 23.2 °C 60000 m 0 cm 6 min 291 W/m² 1018.8 hPa
14:18 34.6 °C 10.4 °C 23 % 7 km/h (13 km/h) 0 mm0 mm 25.5 °C 24.6 °C 24.5 °C 23.2 °C 41890 m 0   0 cm 6 min 294.1 W/m² 1018.8 hPa
14:12 34.4 °C 10.3 °C 23 % 8 km/h (13 km/h) 0 mm0 mm 25.4 °C 24.6 °C 24.5 °C 23.2 °C 15750 m 0   0 cm 6 min 296.5 W/m² 1018.9 hPa
14:06 34.3 °C 10.2 °C 23 % 6 km/h (19 km/h) 0 mm0 mm 25.3 °C 24.6 °C 24.6 °C 23.2 °C 15750 m 0   0 cm 6 min 297.4 W/m² 1018.9 hPa
14:00 34.1 °C 10 °C 23 % 5 km/h (10 km/h) 0 mm0 mm 25.3 °C 24.5 °C 24.5 °C 23.2 °C 29720 m 0   0 cm 6 min 298 W/m² 1018.9 hPa
13:54 33.6 °C 9.6 °C 23 % 6 km/h (12 km/h) 0 mm0 mm 25.2 °C 24.5 °C 24.6 °C 23.2 °C 60000 m 0   0 cm 6 min 298.1 W/m² 1019 hPa
13:48 33.7 °C 10.3 °C 24 % 7 km/h (12 km/h) 0 mm0 mm 25.1 °C 24.5 °C 24.6 °C 23.2 °C 16230 m 0   0 cm 6 min 297.7 W/m² 1019 hPa
13:42 33.2 °C 10.5 °C 25 % 8 km/h (16 km/h) 0 mm0 mm 25 °C 24.5 °C 24.5 °C 23.2 °C 18530 m 0   0 cm 6 min 297.3 W/m² 1019 hPa
13:36 33.2 °C 10.5 °C 25 % 6 km/h (16 km/h) 0 mm0 mm 25 °C 24.4 °C 24.5 °C 23.2 °C 19990 m 0   0 cm 6 min 296.3 W/m² 1019 hPa
13:30 32.8 °C 9.6 °C 24 % 7 km/h (13 km/h) 0 mm0 mm 24.9 °C 24.4 °C 24.6 °C 23.2 °C 19990 m 0   0 cm 6 min 296.3 W/m² 1019 hPa
13:24 32.7 °C 9.5 °C 24 % 8 km/h (14 km/h) 0 mm0 mm 24.8 °C 24.4 °C 24.6 °C 23.2 °C 60000 m 0   0 cm 6 min 296.1 W/m² 1019 hPa
13:18 32.8 °C 10.2 °C 25 % 6 km/h (11 km/h) 0 mm0 mm 24.8 °C 24.4 °C 24.6 °C 23.2 °C 60000 m 0   0 cm 6 min 294.7 W/m² 1019 hPa
13:12 32.4 °C 10.4 °C 26 % 6 km/h (12 km/h) 0 mm0 mm 24.7 °C 24.3 °C 24.5 °C 23.2 °C 60000 m 0   0 cm 6 min 293.6 W/m² 1019 hPa
13:06 32.2 °C 10.8 °C 27 % 7 km/h (12 km/h) 0 mm0 mm 24.6 °C 24.4 °C 24.6 °C 23.2 °C 60000 m 0   0 cm 6 min 291.5 W/m² 1019 hPa
13:00 32.1 °C 11.8 °C 29 % 5 km/h (9 km/h) 0 mm0 mm 24.5 °C 24.4 °C 24.6 °C 23.2 °C 60000 m 0   0 cm 6 min 288.9 W/m² 1019.1 hPa
12:54 31.9 °C 11.7 °C 29 % 5 km/h (9 km/h) 0 mm0 mm 24.4 °C 24.3 °C 24.6 °C 23.2 °C 60000 m 0   0 cm 6 min 285.9 W/m² 1019.3 hPa
12:48 31.7 °C 11.5 °C 29 % 6 km/h (11 km/h) 0 mm0 mm 24.4 °C 24.3 °C 24.6 °C 23.2 °C 14120 m 0   0 cm 6 min 284.1 W/m² 1019.3 hPa
12:42 31.8 °C 12.1 °C 30 % 4 km/h (9 km/h) 0 mm0 mm 24.3 °C 24.3 °C 24.6 °C 23.2 °C 14710 m 0   0 cm 6 min 282.9 W/m² 1019.3 hPa
12:36 31.3 °C 12.1 °C 31 % 3 km/h (8 km/h) 0 mm0 mm 24.3 °C 24.3 °C 24.6 °C 23.2 °C 41360 m 0   0 cm 6 min 280.3 W/m² 1019.4 hPa
12:30 30.8 °C 11.7 °C 31 % 5 km/h (10 km/h) 0 mm0 mm 24.2 °C 24.3 °C 24.6 °C 23.2 °C 60000 m 0   0 cm 6 min 276.9 W/m² 1019.5 hPa
12:24 30.9 °C 11.8 °C 31 % 6 km/h (10 km/h) 0 mm0 mm 24.2 °C 24.3 °C 24.6 °C 23.2 °C 60000 m 0   0 cm 6 min 273.3 W/m² 1019.5 hPa
12:18 30.7 °C 12.1 °C 32 % 6 km/h (10 km/h) 0 mm0 mm 24.1 °C 24.3 °C 24.6 °C 23.2 °C 60000 m 0   0 cm 6 min 270.8 W/m² 1019.6 hPa
12:12 30.8 °C 11.7 °C 31 % 5 km/h (10 km/h) 0 mm0 mm 24.1 °C 24.3 °C 24.6 °C 23.2 °C 60000 m 0   0 cm 6 min 267.7 W/m² 1019.5 hPa
12:06 30.5 °C 11.9 °C 32 % 4 km/h (9 km/h) 0 mm0 mm 24 °C 24.3 °C 24.6 °C 23.2 °C 60000 m 0   0 cm 6 min 264 W/m² 1019.5 hPa
12:00 30.2 °C 12.6 °C 34 % 4 km/h (9 km/h) 0 mm0 mm 24 °C 24.3 °C 24.6 °C 23.2 °C 18820 m 0   0 cm 6 min 260.1 W/m² 1019.6 hPa
11:54 29.8 °C 12.7 °C 35 % 4 km/h (9 km/h) 0 mm0 mm 23.9 °C 24.3 °C 24.6 °C 23.2 °C 18820 m 0   0 cm 6 min 256.6 W/m² 1019.7 hPa
11:48 29.1 °C 12.5 °C 36 % 4 km/h (9 km/h) 0 mm0 mm 23.9 °C 24.3 °C 24.6 °C 23.2 °C 60000 m 0   0 cm 6 min 253 W/m² 1019.7 hPa
11:42 29.2 °C 13 °C 37 % 4 km/h (8 km/h) 0 mm0 mm 23.8 °C 24.3 °C 24.6 °C 23.2 °C 19920 m 0   0 cm 6 min 249.3 W/m² 1019.8 hPa
11:36 28.3 °C 12.6 °C 38 % 4 km/h (8 km/h) 0 mm0 mm 23.8 °C 24.3 °C 24.6 °C 23.2 °C 19920 m 0   0 cm 6 min 244.7 W/m² 1019.9 hPa
11:30 28.4 °C 12.7 °C 38 % 4 km/h (8 km/h) 0 mm0 mm 23.8 °C 24.3 °C 24.6 °C 23.2 °C 39440 m 0   0 cm 6 min 239.7 W/m² 1019.9 hPa
11:24 27.7 °C 12.9 °C 40 % 4 km/h (8 km/h) 0 mm0 mm 23.7 °C 24.3 °C 24.6 °C 23.2 °C 19910 m 0   0 cm 6 min 235.5 W/m² 1020 hPa
11:18 27.5 °C 13.1 °C 41 % 5 km/h (8 km/h) 0 mm0 mm 23.7 °C 24.3 °C 24.6 °C 23.2 °C 42780 m 0   0 cm 6 min 230.6 W/m² 1020 hPa
11:12 27.1 °C 13.1 °C 42 % 4 km/h (7 km/h) 0 mm0 mm 23.7 °C 24.3 °C 24.6 °C 23.2 °C 51850 m 0   0 cm 6 min 225.3 W/m² 1020 hPa
11:06 26.8 °C 12.8 °C 42 % 4 km/h (8 km/h) 0 mm0 mm 23.6 °C 24.3 °C 24.6 °C 23.2 °C 60000 m 0   0 cm 6 min 220.4 W/m² 1019.9 hPa
11:00 26.3 °C 13.1 °C 44 % 5 km/h (9 km/h) 0 mm0 mm 23.6 °C 24.3 °C 24.6 °C 23.2 °C 60000 m 0   0 cm 6 min 214.9 W/m² 1020.1 hPa
10:54 25.9 °C 12.7 °C 44 % 5 km/h (9 km/h) 0 mm0 mm 23.6 °C 24.3 °C 24.6 °C 23.2 °C 17610 m 0   0 cm 6 min 209.7 W/m² 1020.1 hPa
10:48 25.5 °C 13 °C 46 % 5 km/h (10 km/h) 0 mm0 mm 23.6 °C 24.3 °C 24.6 °C 23.2 °C 60000 m 0   0 cm 6 min 204.2 W/m² 1020.1 hPa
10:42 25.2 °C 12.8 °C 46 % 5 km/h (10 km/h) 0 mm0 mm 23.5 °C 24.4 °C 24.6 °C 23.2 °C 60000 m 0   0 cm 6 min 198.5 W/m² 1020.1 hPa
10:36 24.8 °C 13 °C 48 % 6 km/h (10 km/h) 0 mm0 mm 23.6 °C 24.4 °C 24.6 °C 23.2 °C 60000 m 0   0 cm 6 min 192.8 W/m² 1020.1 hPa
10:30 24.4 °C 13 °C 49 % 6 km/h (12 km/h) 0 mm0 mm 23.5 °C 24.4 °C 24.6 °C 23.2 °C 60000 m 0   0 cm 6 min 186.8 W/m² 1020.1 hPa
10:24 24.2 °C 13.4 °C 51 % 6 km/h (10 km/h) 0 mm0 mm 23.5 °C 24.4 °C 24.6 °C 23.2 °C 60000 m 0   0 cm 6 min 180.6 W/m² 1020.1 hPa
10:18 23.4 °C 13.3 °C 53 % 5 km/h (9 km/h) 0 mm0 mm 23.5 °C 24.4 °C 24.6 °C 23.2 °C 60000 m 0   0 cm 6 min 173.9 W/m² 1020.1 hPa
10:12 23.1 °C 13.3 °C 54 % 6 km/h (11 km/h) 0 mm0 mm 23.5 °C 24.4 °C 24.6 °C 23.2 °C 60000 m 0   0 cm 6 min 167.1 W/m² 1020.3 hPa
10:06 22.6 °C 13.1 °C 55 % 7 km/h (12 km/h) 0 mm0 mm 23.5 °C 24.4 °C 24.6 °C 23.2 °C 60000 m 0   0 cm 6 min 160.5 W/m² 1020.3 hPa
10:00 22.4 °C 13.2 °C 56 % 7 km/h (11 km/h) 0 mm0 mm 23.5 °C 24.4 °C 24.6 °C 23.2 °C 60000 m 0   0 cm 6 min 153.9 W/m² 1020.3 hPa
09:54 22.3 °C 13.1 °C 56 % 7 km/h (11 km/h) 0 mm0 mm 23.5 °C 24.5 °C 24.6 °C 23.2 °C 60000 m 0   0 cm 6 min 147.3 W/m² 1020.3 hPa
09:48 21.9 °C 13.5 °C 59 % 8 km/h (11 km/h) 0 mm0 mm 23.5 °C 24.5 °C 24.6 °C 23.2 °C 60000 m 0   0 cm 6 min 140.7 W/m² 1020.3 hPa
09:42 21.3 °C 13 °C 59 % 8 km/h (12 km/h) 0 mm0 mm 23.5 °C 24.5 °C 24.6 °C 23.2 °C 60000 m 0   0 cm 6 min 133.9 W/m² 1020.4 hPa
09:36 21.4 °C 13.3 °C 60 % 9 km/h (13 km/h) 0 mm0 mm 23.5 °C 24.5 °C 24.6 °C 23.2 °C 60000 m 0   0 cm 6 min 127 W/m² 1020.4 hPa
09:30 20.7 °C 13.4 °C 63 % 9 km/h (13 km/h) 0 mm0 mm 23.6 °C 24.6 °C 24.6 °C 23.2 °C 60000 m 0   0 cm 6 min 120.4 W/m² 1020.4 hPa
09:24 20.3 °C 13.3 °C 64 % 9 km/h (13 km/h) 0 mm0 mm 23.6 °C 24.6 °C 24.6 °C 23.2 °C 60000 m 0   0 cm 6 min 113.8 W/m² 1020.4 hPa
09:18 20.2 °C 13.2 °C 64 % 9 km/h (12 km/h) 0 mm0 mm 23.6 °C 24.6 °C 24.6 °C 23.2 °C 60000 m 0   0 cm 6 min 107.1 W/m² 1020.4 hPa
09:12 19.7 °C 13.4 °C 67 % 9 km/h (14 km/h) 0 mm0 mm 23.6 °C 24.6 °C 24.6 °C 23.2 °C 60000 m 0   0 cm 6 min 100 W/m² 1020.6 hPa
09:06 19.4 °C 13.3 °C 68 % 8 km/h (14 km/h) 0 mm0 mm 23.6 °C 24.6 °C 24.6 °C 23.2 °C 60000 m 0   0 cm 6 min 92.9 W/m² 1020.5 hPa
09:00 19 °C 13.4 °C 70 % 6 km/h (9 km/h) 0 mm0 mm 23.6 °C 24.7 °C 24.6 °C 23.2 °C 60000 m 0   0 cm 6 min 86 W/m² 1020.4 hPa
08:54 18.8 °C 13.2 °C 70 % 6 km/h (9 km/h) 0 mm0 mm 23.6 °C 24.7 °C 24.6 °C 23.2 °C 60000 m 0   0 cm 6 min 79 W/m² 1020.4 hPa
08:48 18.4 °C 12.8 °C 70 % 8 km/h (11 km/h) 0 mm0 mm 23.7 °C 24.7 °C 24.6 °C 23.2 °C 60000 m 0   0 cm 6 min 72.3 W/m² 1020.5 hPa
08:42 18 °C 12.7 °C 71 % 8 km/h (11 km/h) 0 mm0 mm 23.7 °C 24.7 °C 24.6 °C 23.2 °C 60000 m 0   0 cm 6 min 65.4 W/m² 1020.6 hPa
08:36 17.8 °C 12.5 °C 71 % 6 km/h (8 km/h) 0 mm0 mm 23.7 °C 24.7 °C 24.6 °C 23.2 °C 60000 m 0   0 cm 6 min 58.2 W/m² 1020.6 hPa
08:30 17.9 °C 12.6 °C 71 % 5 km/h (7 km/h) 0 mm0 mm 23.8 °C 24.7 °C 24.6 °C 23.2 °C 60000 m 0   0 cm 6 min 51 W/m² 1020.5 hPa
08:24 17.5 °C 12.8 °C 74 % 4 km/h (7 km/h) 0 mm0 mm 23.8 °C 24.7 °C 24.6 °C 23.2 °C 60000 m 0   0 cm 6 min 43.9 W/m² 1020.6 hPa
08:18 17 °C 12.5 °C 75 % 5 km/h (8 km/h) 0 mm0 mm 23.8 °C 24.8 °C 24.6 °C 23.2 °C 58810 m 0   0 cm 6 min 37.3 W/m² 1020.6 hPa
08:12 16.8 °C 12.7 °C 77 % 7 km/h (10 km/h) 0 mm0 mm 23.8 °C 24.8 °C 24.7 °C 23.2 °C 58270 m 0   0 cm 6 min 31.7 W/m² 1020.6 hPa
08:06 16.5 °C 12.6 °C 78 % 8 km/h (12 km/h) 0 mm0 mm 23.8 °C 24.8 °C 24.6 °C 23.2 °C 60000 m 0   0 cm 5 min 24.1 W/m² 1020.7 hPa
08:00 16.3 °C 12.5 °C 78 % 8 km/h (13 km/h) 0 mm0 mm 23.9 °C 24.8 °C 24.6 °C 23.2 °C 59600 m 0   0 cm 6 min 18.8 W/m² 1020.6 hPa
07:54 16.2 °C 12.2 °C 77 % 6 km/h (9 km/h) 0 mm0 mm 23.9 °C 24.8 °C 24.6 °C 23.2 °C 59720 m 0   0 cm 6 min 13.7 W/m² 1020.6 hPa
07:48 16.3 °C 12.1 °C 76 % 5 km/h (6 km/h) 0 mm0 mm 23.9 °C 24.9 °C 24.6 °C 23.2 °C 60000 m 0   0 cm 6 min 10.4 W/m² 1020.5 hPa
07:42 16.2 °C 12.2 °C 77 % 5 km/h (6 km/h) 0 mm0 mm 23.9 °C 24.9 °C 24.6 °C 23.2 °C 60000 m 0   0 cm 0 min 5.3 W/m² 1020.4 hPa
07:36 16.1 °C 12.3 °C 78 % 5 km/h (6 km/h) 0 mm0 mm 24 °C 24.9 °C 24.6 °C 23.2 °C 60000 m 0   0 cm 0 min 0 W/m² 1020.3 hPa
07:30 16 °C 12.2 °C 78 % 5 km/h (6 km/h) 0 mm0 mm 24 °C 24.9 °C 24.6 °C 23.2 °C 60000 m 0   0 cm 0 min 0 W/m² 1020.4 hPa
07:24 16 °C 12.2 °C 78 % 5 km/h (6 km/h) 0 mm0 mm 24.1 °C 24.9 °C 24.6 °C 23.2 °C 60000 m 0   0 cm 0 min 0 W/m² 1020.4 hPa
07:18 16 °C 12.2 °C 78 % 5 km/h (9 km/h) 0 mm0 mm 24.1 °C 25 °C 24.6 °C 23.2 °C 60000 m 0   0 cm 0 min 0 W/m² 1020.4 hPa
07:12 16.1 °C 12.3 °C 78 % 5 km/h (6 km/h) 0 mm0 mm 24.1 °C 25 °C 24.6 °C 23.2 °C 60000 m 0   0 cm 0 min 0 W/m² 1020.5 hPa
07:06 16.2 °C 12.4 °C 78 % 5 km/h (7 km/h) 0 mm0 mm 24.1 °C 25 °C 24.6 °C 23.2 °C 60000 m 0   0 cm 0 min 0 W/m² 1020.5 hPa
07:00 16.1 °C 12.3 °C 78 % 6 km/h (7 km/h) 0 mm0 mm 24.2 °C 25 °C 24.6 °C 23.2 °C 60000 m 0   0 cm 0 min 0 W/m² 1020.4 hPa
06:54 16 °C 12.2 °C 78 % 5 km/h (7 km/h) 0 mm0 mm 24.2 °C 25 °C 24.6 °C 23.2 °C 60000 m 0   0 cm 0 min 0 W/m² 1020.3 hPa
06:48 16.1 °C 12.5 °C 79 % 4 km/h (6 km/h) 0 mm0 mm 24.2 °C 25 °C 24.6 °C 23.2 °C 60000 m 0   0 cm 0 min 0 W/m² 1020.2 hPa
06:42 16 °C 12.5 °C 80 % 5 km/h (7 km/h) 0 mm0 mm 24.3 °C 25.1 °C 24.6 °C 23.2 °C 60000 m 0   0 cm 0 min 0 W/m² 1020.2 hPa
06:36 15.9 °C 12.3 °C 79 % 5 km/h (7 km/h) 0 mm0 mm 24.3 °C 25.1 °C 24.6 °C 23.2 °C 60000 m 0   0 cm 0 min 0 W/m² 1020.3 hPa
06:30 16 °C 12.4 °C 79 % 5 km/h (8 km/h) 0 mm0 mm 24.3 °C 25.1 °C 24.6 °C 23.2 °C 60000 m 0   0 cm 0 min 0 W/m² 1020.2 hPa
06:24 16.1 °C 12.5 °C 79 % 6 km/h (8 km/h) 0 mm0 mm 24.3 °C 25.1 °C 24.6 °C 23.2 °C 60000 m 0   0 cm 0 min 0 W/m² 1020.3 hPa
06:18 16.1 °C 12.5 °C 79 % 6 km/h (8 km/h) 0 mm0 mm 24.4 °C 25.1 °C 24.6 °C 23.2 °C 60000 m 0   0 cm 0 min 0 W/m² 1020.3 hPa
06:12 16.1 °C 12.5 °C 79 % 6 km/h (10 km/h) 0 mm0 mm 24.4 °C 25.2 °C 24.6 °C 23.2 °C 60000 m 0   0 cm 0 min 0 W/m² 1020.3 hPa
06:06 16.1 °C 12.3 °C 78 % 6 km/h (10 km/h) 0 mm0 mm 24.4 °C 25.2 °C 24.7 °C 23.2 °C 60000 m 0   0 cm 0 min 0 W/m² 1020.3 hPa
06:00 16.2 °C 12.6 °C 79 % 5 km/h (8 km/h) 0 mm0 mm 24.5 °C 25.2 °C 24.6 °C 23.2 °C 60000 m 0   0 cm 0 min 0 W/m² 1020.3 hPa
05:54 16.2 °C 12.4 °C 78 % 6 km/h (8 km/h) 0 mm0 mm 24.4 °C 25.2 °C 24.6 °C 23.2 °C 60000 m 0   0 cm 0 min 0 W/m² 1020.3 hPa
05:48 16.4 °C 12.6 °C 78 % 5 km/h (7 km/h) 0 mm0 mm 24.5 °C 25.2 °C 24.6 °C 23.2 °C 60000 m 0   0 cm 0 min 0 W/m² 1020.3 hPa
05:42 16.6 °C 12.5 °C 77 % 5 km/h (8 km/h) 0 mm0 mm 24.5 °C 25.3 °C 24.6 °C 23.2 °C 60000 m 0   0 cm 0 min 0 W/m² 1020.2 hPa
05:36 16.7 °C 12.4 °C 76 % 5 km/h (8 km/h) 0 mm0 mm 24.6 °C 25.3 °C 24.6 °C 23.2 °C 60000 m 0   0 cm 0 min 0 W/m² 1020.2 hPa
05:30 16.9 °C 12.6 °C 76 % 4 km/h (6 km/h) 0 mm0 mm 24.6 °C 25.3 °C 24.6 °C 23.2 °C 60000 m 0   0 cm 0 min 0 W/m² 1020.3 hPa
05:24 17 °C 12.7 °C 76 % 5 km/h (8 km/h) 0 mm0 mm 24.6 °C 25.3 °C 24.7 °C 23.2 °C 60000 m 0   0 cm 0 min 0 W/m² 1020.3 hPa
05:18 17 °C 12.5 °C 75 % 6 km/h (8 km/h) 0 mm0 mm 24.6 °C 25.3 °C 24.6 °C 23.2 °C 60000 m 0   0 cm 0 min 0 W/m² 1020.4 hPa
05:12 17.2 °C 12.5 °C 74 % 5 km/h (7 km/h) 0 mm0 mm 24.7 °C 25.4 °C 24.6 °C 23.2 °C 60000 m 0   0 cm 0 min 0 W/m² 1020.4 hPa
05:06 17.3 °C 12.6 °C 74 % 5 km/h (7 km/h) 0 mm0 mm 24.7 °C 25.4 °C 24.6 °C 23.2 °C 60000 m 0   0 cm 0 min 0 W/m² 1020.4 hPa
05:00 17.3 °C 12.4 °C 73 % 5 km/h (7 km/h) 0 mm0 mm 24.7 °C 25.4 °C 24.6 °C 23.2 °C 60000 m 0   0 cm 0 min 0 W/m² 1020.3 hPa
04:54 17.4 °C 12.5 °C 73 % 6 km/h (8 km/h) 0 mm0 mm 24.8 °C 25.4 °C 24.6 °C 23.2 °C 60000 m 0   0 cm 0 min 0 W/m² 1020.3 hPa
04:48 17.4 °C 12.3 °C 72 % 6 km/h (9 km/h) 0 mm0 mm 24.8 °C 25.4 °C 24.6 °C 23.2 °C 60000 m 0   0 cm 0 min 0 W/m² 1020.4 hPa
04:42 17.5 °C 12.4 °C 72 % 7 km/h (10 km/h) 0 mm0 mm 24.9 °C 25.5 °C 24.6 °C 23.2 °C 60000 m 0   0 cm 0 min 0 W/m² 1020.5 hPa
04:36 17.7 °C 12.4 °C 71 % 6 km/h (10 km/h) 0 mm0 mm 24.9 °C 25.5 °C 24.6 °C 23.2 °C 60000 m 0   0 cm 0 min 0 W/m² 1020.6 hPa
04:30 17.8 °C 12.5 °C 71 % 5 km/h (8 km/h) 0 mm0 mm 24.9 °C 25.5 °C 24.6 °C 23.2 °C 60000 m 0   0 cm 0 min 0 W/m² 1020.7 hPa
04:24 17.8 °C 12.5 °C 71 % 5 km/h (7 km/h) 0 mm0 mm 24.9 °C 25.5 °C 24.6 °C 23.2 °C 60000 m 0   0 cm 0 min 0 W/m² 1020.7 hPa
04:18 17.8 °C 12.3 °C 70 % 6 km/h (8 km/h) 0 mm0 mm 25 °C 25.5 °C 24.6 °C 23.2 °C 60000 m 0   0 cm 0 min 0 W/m² 1020.8 hPa
04:12 18 °C 12.4 °C 70 % 6 km/h (8 km/h) 0 mm0 mm 25 °C 25.6 °C 24.6 °C 23.2 °C 60000 m 0   0 cm 0 min 0 W/m² 1020.8 hPa
04:06 17.9 °C 12.3 °C 70 % 5 km/h (7 km/h) 0 mm0 mm 25 °C 25.6 °C 24.6 °C 23.2 °C 60000 m 0   0 cm 0 min 0 W/m² 1020.9 hPa
04:00 17.8 °C 12.3 °C 70 % 6 km/h (8 km/h) 0 mm0 mm 25.1 °C 25.6 °C 24.6 °C 23.2 °C 60000 m 0   0 cm 0 min 0 W/m² 1020.9 hPa
03:54 18 °C 12.4 °C 70 % 6 km/h (8 km/h) 0 mm0 mm 25.1 °C 25.7 °C 24.6 °C 23.2 °C 60000 m 0   0 cm 0 min 0 W/m² 1020.9 hPa
03:48 18.1 °C 12.3 °C 69 % 6 km/h (8 km/h) 0 mm0 mm 25.1 °C 25.6 °C 24.6 °C 23.2 °C 60000 m 0   0 cm 0 min 0 W/m² 1020.9 hPa
03:42 18.4 °C 12.4 °C 68 % 6 km/h (7 km/h) 0 mm0 mm 25.1 °C 25.7 °C 24.6 °C 23.2 °C 60000 m 0   0 cm 0 min 0 W/m² 1021 hPa
03:36 18.4 °C 12.4 °C 68 % 5 km/h (7 km/h) 0 mm0 mm 25.2 °C 25.7 °C 24.6 °C 23.2 °C 60000 m 0   0 cm 0 min 0 W/m² 1021 hPa
03:30 18.4 °C 12.4 °C 68 % 5 km/h (6 km/h) 0 mm0 mm 25.2 °C 25.7 °C 24.6 °C 23.2 °C 60000 m 0   0 cm 0 min 0 W/m² 1021.1 hPa
03:24 18.6 °C 12.6 °C 68 % 4 km/h (6 km/h) 0 mm0 mm 25.3 °C 25.7 °C 24.6 °C 23.2 °C 60000 m 0   0 cm 0 min 0 W/m² 1021 hPa
03:18 18.6 °C 12.6 °C 68 % 5 km/h (6 km/h) 0 mm0 mm 25.3 °C 25.7 °C 24.6 °C 23.2 °C 60000 m 0   0 cm 0 min 0 W/m² 1021 hPa
03:12 18.4 °C 12.4 °C 68 % 4 km/h (9 km/h) 0 mm0 mm 25.3 °C 25.8 °C 24.6 °C 23.2 °C 60000 m 0   0 cm 0 min 0 W/m² 1021.1 hPa
03:06 18.3 °C 12.5 °C 69 % 4 km/h (6 km/h) 0 mm0 mm 25.3 °C 25.8 °C 24.6 °C 23.2 °C 60000 m 0   0 cm 0 min 0 W/m² 1021.2 hPa
03:00 18.4 °C 12.4 °C 68 % 5 km/h (7 km/h) 0 mm0 mm 25.4 °C 25.8 °C 24.6 °C 23.2 °C 60000 m 0   0 cm 0 min 0 W/m² 1021.3 hPa
02:54 18.5 °C 12.3 °C 67 % 6 km/h (8 km/h) 0 mm0 mm 25.4 °C 25.8 °C 24.6 °C 23.2 °C 60000 m 0   0 cm 0 min 0 W/m² 1021.3 hPa
02:48 18.7 °C 12.4 °C 67 % 6 km/h (8 km/h) 0 mm0 mm 25.5 °C 25.8 °C 24.6 °C 23.2 °C 60000 m 0   0 cm 0 min 0 W/m² 1021.3 hPa
02:42 18.7 °C 12.2 °C 66 % 6 km/h (9 km/h) 0 mm0 mm 25.5 °C 25.8 °C 24.6 °C 23.2 °C 55280 m 0   0 cm 0 min 0 W/m² 1021.3 hPa
02:36 19.1 °C 12.1 °C 64 % 6 km/h (8 km/h) 0 mm0 mm 25.5 °C 25.9 °C 24.6 °C 23.2 °C 18840 m 0   0 cm 0 min 0 W/m² 1021.3 hPa
02:30 19.1 °C 11.9 °C 63 % 6 km/h (8 km/h) 0 mm0 mm 25.6 °C 25.9 °C 24.6 °C 23.2 °C 34920 m 0   0 cm 0 min 0 W/m² 1021.3 hPa
02:24 19.2 °C 11.7 °C 62 % 6 km/h (7 km/h) 0 mm0 mm 25.6 °C 25.9 °C 24.6 °C 23.2 °C 27910 m 0   0 cm 0 min 0 W/m² 1021.3 hPa
02:18 19.5 °C 12 °C 62 % 4 km/h (7 km/h) 0 mm0 mm 25.6 °C 25.9 °C 24.6 °C 23.2 °C 48500 m 0   0 cm 0 min 0 W/m² 1021.4 hPa
02:12 19.4 °C 11.9 °C 62 % 5 km/h (7 km/h) 0 mm0 mm 25.7 °C 25.9 °C 24.6 °C 23.2 °C 60000 m 0   0 cm 0 min 0 W/m² 1021.5 hPa
02:06 19.3 °C 11.8 °C 62 % 5 km/h (8 km/h) 0 mm0 mm 25.7 °C 26 °C 24.6 °C 23.2 °C 60000 m 0   0 cm 0 min 0 W/m² 1021.5 hPa
02:00 19.5 °C 11.8 °C 61 % 6 km/h (9 km/h) 0 mm0 mm 25.7 °C 26 °C 24.6 °C 23.2 °C 60000 m 0   0 cm 0 min 0 W/m² 1021.5 hPa
01:54 19.6 °C 11.9 °C 61 % 6 km/h (9 km/h) 0 mm0 mm 25.8 °C 26 °C 24.6 °C 23.2 °C 60000 m 0   0 cm 0 min 0 W/m² 1021.5 hPa
01:48 19.7 °C 11.7 °C 60 % 4 km/h (6 km/h) 0 mm0 mm 25.8 °C 26 °C 24.6 °C 23.2 °C 52720 m 0   0 cm 0 min 0 W/m² 1021.6 hPa
01:42 19.8 °C 12.1 °C 61 % 5 km/h (10 km/h) 0 mm0 mm 25.9 °C 26 °C 24.6 °C 23.2 °C 52720 m 0   0 cm 0 min 0 W/m² 1021.7 hPa
01:36 19.9 °C 11.9 °C 60 % 5 km/h (10 km/h) 0 mm0 mm 25.9 °C 26 °C 24.6 °C 23.2 °C 60000 m 0   0 cm 0 min 0 W/m² 1021.7 hPa
01:30 20.1 °C 12.1 °C 60 % 4 km/h (5 km/h) 0 mm0 mm 25.9 °C 26 °C 24.5 °C 23.2 °C 60000 m 0   0 cm 0 min 0 W/m² 1021.7 hPa
01:24 20.1 °C 12.1 °C 60 % 5 km/h (9 km/h) 0 mm0 mm 25.9 °C 26.1 °C 24.5 °C 23.2 °C 60000 m 0   0 cm 0 min 0 W/m² 1021.8 hPa
01:18 20 °C 12 °C 60 % 6 km/h (9 km/h) 0 mm0 mm 26 °C 26.1 °C 24.5 °C 23.2 °C 56600 m 0   0 cm 0 min 0 W/m² 1021.8 hPa
01:12 20.3 °C 12 °C 59 % 8 km/h (9 km/h) 0 mm0 mm 26 °C 26.1 °C 24.5 °C 23.2 °C 56600 m 0   0 cm 0 min 0 W/m² 1021.8 hPa
01:06 20.5 °C 11.9 °C 58 % 8 km/h (10 km/h) 0 mm0 mm 26 °C 26.1 °C 24.5 °C 23.2 °C 18550 m 0   0 cm 0 min 0 W/m² 1021.7 hPa
01:00 20.7 °C 11.9 °C 57 % 6 km/h (9 km/h) 0 mm0 mm 26.1 °C 26.1 °C 24.5 °C 23.2 °C 18550 m 0   0 cm 0 min 0 W/m² 1021.7 hPa
00:54 21.2 °C 12.1 °C 56 % 6 km/h (8 km/h) 0 mm0 mm 26.1 °C 26.1 °C 24.5 °C 23.2 °C 54460 m 0   0 cm 0 min 0 W/m² 1021.7 hPa
00:48 21.2 °C 12.3 °C 57 % 7 km/h (10 km/h) 0 mm0 mm 26.1 °C 26.2 °C 24.5 °C 23.2 °C 54460 m 0   0 cm 0 min 0 W/m² 1021.7 hPa
00:42 21.3 °C 12.2 °C 56 % 8 km/h (10 km/h) 0 mm0 mm 26.2 °C 26.2 °C 24.5 °C 23.2 °C 60000 m 0   0 cm 0 min 0 W/m² 1021.7 hPa
00:36 21.8 °C 10.9 °C 50 % 3 km/h (9 km/h) 0 mm0 mm 26.2 °C 26.2 °C 24.5 °C 23.2 °C 60000 m 0   0 cm 0 min 0 W/m² 1021.7 hPa
00:30 22.4 °C 10.2 °C 46 % 0 km/h (3 km/h) 0 mm0 mm 26.3 °C 26.2 °C 24.5 °C 23.2 °C 60000 m 0   0 cm 0 min 0 W/m² 1021.7 hPa
00:24 22.5 °C 10 °C 45 % 3 km/h (5 km/h) 0 mm0 mm 26.3 °C 26.2 °C 24.5 °C 23.2 °C 60000 m 0   0 cm 0 min 0 W/m² 1021.7 hPa
00:18 22.7 °C 9.8 °C 44 % 4 km/h (5 km/h) 0 mm0 mm 26.4 °C 26.3 °C 24.5 °C 23.2 °C 60000 m 0   0 cm 0 min 0 W/m² 1021.8 hPa
00:12 23.2 °C 9.9 °C 43 % 4 km/h (4 km/h) 0 mm0 mm 26.4 °C 26.2 °C 24.5 °C 23.2 °C 60000 m 0   0 cm 0 min 0 W/m² 1021.8 hPa
00:06 23.5 °C 9.8 °C 42 % 3 km/h (4 km/h) 0 mm0 mm 26.4 °C 26.3 °C 24.5 °C 23.2 °C 53630 m 0   0 cm 0 min 0 W/m² 1021.8 hPa
00:00 23.7 °C 10 °C 42 % 3 km/h (6 km/h) 0 mm0 mm 26.5 °C 26.3 °C 24.5 °C 23.2 °C 51830 m 0   0 cm 0 min 0 W/m² 1021.8 hPa

Données via Météo-France

Relevés météo à Toulouse-Blagnac

Cette page rassemble les observations de la station de Toulouse-Blagnac : température, humidité, vent, précipitations et pression atmosphérique. Les graphiques facilitent le suivi de la journée, tandis que le tableau donne accès aux mesures horaires et infra-horaires disponibles.

Pour replacer ces mesures dans leur contexte, consultez la climatologie de Toulouse-Blagnac ainsi que ses normales et records. Retrouvez aussi la carte des observations météo en temps réel.